createdAt,value
2023-05-04T00:00:24.336Z,31.67
2023-05-04T00:01:24.323Z,31.67
2023-05-04T00:02:24.430Z,31.73
2023-05-04T00:03:24.508Z,31.76
2023-05-04T00:04:24.377Z,31.73
2023-05-04T00:05:24.376Z,31.78
2023-05-04T00:06:24.832Z,31.82
2023-05-04T00:07:24.365Z,31.76
2023-05-04T00:08:24.350Z,31.68
2023-05-04T00:09:24.390Z,31.77
2023-05-04T00:10:24.431Z,31.82
2023-05-04T00:11:24.905Z,31.83
2023-05-04T00:12:24.410Z,31.86
2023-05-04T00:13:24.423Z,31.90
2023-05-04T00:14:24.412Z,31.90
2023-05-04T00:15:24.454Z,31.90
2023-05-04T00:16:24.485Z,31.95
2023-05-04T00:17:24.493Z,31.94
2023-05-04T00:18:24.435Z,31.95
2023-05-04T00:19:24.480Z,32.05
2023-05-04T00:20:24.491Z,32.04
2023-05-04T00:21:24.491Z,32.06
2023-05-04T00:22:24.457Z,32.09
2023-05-04T00:23:24.491Z,32.07
2023-05-04T00:24:24.521Z,32.10
2023-05-04T00:25:24.553Z,32.11
2023-05-04T00:26:24.830Z,32.11
2023-05-04T00:27:24.548Z,32.15
2023-05-04T00:28:24.544Z,32.21
2023-05-04T00:29:24.599Z,32.22
2023-05-04T00:30:24.574Z,32.29
2023-05-04T00:31:24.627Z,32.32
2023-05-04T00:32:24.626Z,32.28
2023-05-04T00:33:24.534Z,32.32
2023-05-04T00:34:24.592Z,32.33
2023-05-04T00:35:24.604Z,32.33
2023-05-04T00:36:24.877Z,32.37
2023-05-04T00:37:24.634Z,32.33
2023-05-04T00:38:24.632Z,32.39
2023-05-04T00:39:24.660Z,32.37
2023-05-04T00:40:24.609Z,32.40
2023-05-04T00:41:24.647Z,32.42
2023-05-04T00:42:24.599Z,32.44
2023-05-04T00:43:24.653Z,32.41
2023-05-04T00:44:24.658Z,32.42
2023-05-04T00:45:24.682Z,32.48
2023-05-04T00:46:24.710Z,32.53
2023-05-04T00:47:24.798Z,32.57
2023-05-04T00:48:24.701Z,32.55
2023-05-04T00:49:24.679Z,32.59
2023-05-04T00:50:24.728Z,32.56
2023-05-04T00:51:24.744Z,32.63
2023-05-04T00:52:24.745Z,32.60
2023-05-04T00:53:24.749Z,32.56
2023-05-04T00:54:24.764Z,32.60
2023-05-04T00:55:24.784Z,32.62
2023-05-04T00:56:24.884Z,32.61
2023-05-04T00:57:24.783Z,32.61
2023-05-04T00:58:24.773Z,32.58
2023-05-04T00:59:24.824Z,32.55
2023-05-04T01:00:24.870Z,32.58
2023-05-04T01:01:24.990Z,32.57
2023-05-04T01:02:24.839Z,32.52
2023-05-04T01:03:24.907Z,32.39
2023-05-04T01:04:24.867Z,32.38
2023-05-04T01:05:24.872Z,32.32
2023-05-04T01:06:24.912Z,32.21
2023-05-04T01:07:24.926Z,32.16
2023-05-04T01:08:24.936Z,32.13
2023-05-04T01:09:24.933Z,32.09
2023-05-04T01:10:24.927Z,32.04
2023-05-04T01:11:24.939Z,32.04
2023-05-04T01:12:24.974Z,32.09
2023-05-04T01:13:24.959Z,32.00
2023-05-04T01:14:24.963Z,31.97
2023-05-04T01:15:25.089Z,31.91
2023-05-04T01:16:25.395Z,31.89
2023-05-04T01:17:25.117Z,31.91
2023-05-04T01:18:25.083Z,31.93
2023-05-04T01:19:25.095Z,31.93
2023-05-04T01:20:25.117Z,31.86
2023-05-04T01:21:25.123Z,31.90
2023-05-04T01:22:25.144Z,31.85
2023-05-04T01:23:25.159Z,31.78
2023-05-04T01:24:25.179Z,31.79
2023-05-04T01:25:25.162Z,31.85
2023-05-04T01:26:25.396Z,31.74
2023-05-04T01:27:25.189Z,31.77
2023-05-04T01:28:25.225Z,31.70
2023-05-04T01:29:25.245Z,31.72
2023-05-04T01:30:25.271Z,31.72
2023-05-04T01:31:25.421Z,31.75
2023-05-04T01:32:25.311Z,31.69
2023-05-04T01:33:25.341Z,31.65
2023-05-04T01:34:25.371Z,31.69
2023-05-04T01:35:25.346Z,31.68
2023-05-04T01:36:25.340Z,31.70
2023-05-04T01:37:25.372Z,31.73
2023-05-04T01:38:25.398Z,31.70
2023-05-04T01:39:25.466Z,31.66
2023-05-04T01:40:25.472Z,31.75
2023-05-04T01:41:25.477Z,31.70
2023-05-04T01:42:25.537Z,31.77
2023-05-04T01:43:25.544Z,31.78
2023-05-04T01:44:25.550Z,31.86
2023-05-04T01:45:25.671Z,31.76
2023-05-04T01:46:25.625Z,31.78
2023-05-04T01:47:25.640Z,31.80
2023-05-04T01:48:26.414Z,31.84
2023-05-04T01:49:25.678Z,31.94
2023-05-04T01:50:26.300Z,31.91
2023-05-04T01:51:25.714Z,31.88
2023-05-04T01:52:25.729Z,31.88
2023-05-04T01:53:25.768Z,31.83
2023-05-04T01:54:25.768Z,31.89
2023-05-04T01:55:25.819Z,31.91
2023-05-04T01:56:25.833Z,31.91
2023-05-04T01:57:25.857Z,31.91
2023-05-04T01:58:25.921Z,31.91
2023-05-04T01:59:25.919Z,31.91
2023-05-04T02:00:25.915Z,31.94
2023-05-04T02:01:25.994Z,31.96
2023-05-04T02:02:25.959Z,31.94
2023-05-04T02:03:26.076Z,31.91
2023-05-04T02:04:26.024Z,31.96
2023-05-04T02:05:26.068Z,31.97
2023-05-04T02:06:26.076Z,31.93
2023-05-04T02:07:26.114Z,32.00
2023-05-04T02:08:26.130Z,31.97
2023-05-04T02:09:26.193Z,32.01
2023-05-04T02:10:26.210Z,32.01
2023-05-04T02:11:26.275Z,31.96
2023-05-04T02:12:26.304Z,31.92
2023-05-04T02:13:26.384Z,31.94
2023-05-04T02:14:26.384Z,32.00
2023-05-04T02:15:26.396Z,32.07
2023-05-04T02:16:26.472Z,32.04
2023-05-04T02:17:26.526Z,32.07
2023-05-04T02:18:26.545Z,32.05
2023-05-04T02:19:26.545Z,32.01
2023-05-04T02:20:26.592Z,32.07
2023-05-04T02:21:26.640Z,32.07
2023-05-04T02:22:26.633Z,32.07
2023-05-04T02:23:26.670Z,32.09
2023-05-04T02:24:26.807Z,32.02
2023-05-04T02:25:26.748Z,32.13
2023-05-04T02:26:26.779Z,32.13
2023-05-04T02:27:26.913Z,32.11
2023-05-04T02:28:26.839Z,32.16
2023-05-04T02:29:26.858Z,32.15
2023-05-04T02:30:26.903Z,32.08
2023-05-04T02:31:26.951Z,32.15
2023-05-04T02:32:27.067Z,32.19
2023-05-04T02:33:26.994Z,32.08
2023-05-04T02:34:27.025Z,32.16
2023-05-04T02:35:27.034Z,32.26
2023-05-04T02:36:27.085Z,32.27
2023-05-04T02:37:27.119Z,32.28
2023-05-04T02:38:27.193Z,32.32
2023-05-04T02:39:27.184Z,32.35
2023-05-04T02:40:27.297Z,32.33
2023-05-04T02:41:27.292Z,32.42
2023-05-04T02:42:27.311Z,32.39
2023-05-04T02:43:27.406Z,32.46
2023-05-04T02:44:27.419Z,32.43
2023-05-04T02:45:27.618Z,32.50
2023-05-04T02:46:27.477Z,32.38
2023-05-04T02:47:27.560Z,32.47
2023-05-04T02:48:27.577Z,32.47
2023-05-04T02:49:27.599Z,32.43
2023-05-04T02:50:27.629Z,32.46
2023-05-04T02:51:27.691Z,32.51
2023-05-04T02:52:27.742Z,32.53
2023-05-04T02:53:27.810Z,32.47
2023-05-04T02:54:27.838Z,32.58
2023-05-04T02:55:27.839Z,32.56
2023-05-04T02:56:27.921Z,32.53
2023-05-04T02:57:27.948Z,32.52
2023-05-04T02:58:28.007Z,32.51
2023-05-04T02:59:28.082Z,32.52
2023-05-04T03:00:28.157Z,32.48
2023-05-04T03:01:28.270Z,32.56
2023-05-04T03:02:28.349Z,32.59
2023-05-04T03:03:28.249Z,32.64
2023-05-04T03:04:28.374Z,32.61
2023-05-04T03:05:28.320Z,32.69
2023-05-04T03:06:28.389Z,32.68
2023-05-04T03:07:28.449Z,32.70
2023-05-04T03:08:28.517Z,32.66
2023-05-04T03:09:28.609Z,32.67
2023-05-04T03:10:28.567Z,32.71
2023-05-04T03:11:28.689Z,32.73
2023-05-04T03:12:28.708Z,32.79
2023-05-04T03:13:28.732Z,32.79
2023-05-04T03:14:28.802Z,32.81
2023-05-04T03:15:28.816Z,32.85
2023-05-04T03:16:28.919Z,32.84
2023-05-04T03:17:28.973Z,32.88
2023-05-04T03:19:48.181Z,33.02
2023-05-04T03:20:48.142Z,33.05
2023-05-04T03:21:48.142Z,33.02
2023-05-04T03:22:48.860Z,33.01
2023-05-04T03:23:48.126Z,33.11
2023-05-04T03:24:48.192Z,33.10
2023-05-04T03:25:48.254Z,33.06
2023-05-04T03:26:48.315Z,33.06
2023-05-04T03:27:48.363Z,33.03
2023-05-04T03:28:48.454Z,33.04
2023-05-04T03:29:48.494Z,32.98
2023-05-04T03:30:48.585Z,32.94
2023-05-04T03:31:48.692Z,32.89
2023-05-04T03:32:48.733Z,32.90
2023-05-04T03:33:48.754Z,32.91
2023-05-04T03:34:48.830Z,32.92
2023-05-04T03:35:48.823Z,32.86
2023-05-04T03:36:48.916Z,32.79
2023-05-04T03:37:49.393Z,32.89
2023-05-04T03:38:49.026Z,32.80
2023-05-04T03:39:49.102Z,32.82
2023-05-04T03:40:49.148Z,32.79
2023-05-04T03:41:49.209Z,32.76
2023-05-04T03:42:49.297Z,32.83
2023-05-04T03:43:49.333Z,32.84
2023-05-04T03:44:49.390Z,32.83
2023-05-04T03:45:49.491Z,32.84
2023-05-04T03:46:49.481Z,32.84
2023-05-04T03:47:49.586Z,32.92
2023-05-04T03:48:49.587Z,32.94
2023-05-04T03:49:49.658Z,32.91
2023-05-04T03:50:49.733Z,32.91
2023-05-04T03:51:49.803Z,32.92
2023-05-04T03:52:49.914Z,32.88
2023-05-04T03:53:49.930Z,32.87
2023-05-04T03:54:49.942Z,32.88
2023-05-04T03:55:49.968Z,32.91
2023-05-04T03:56:50.072Z,32.88
2023-05-04T03:57:50.140Z,32.88
2023-05-04T03:58:50.197Z,32.94
2023-05-04T03:59:50.258Z,32.95
2023-05-04T04:00:50.304Z,32.89
2023-05-04T04:01:50.360Z,32.97
2023-05-04T04:02:50.450Z,32.97
2023-05-04T04:03:50.547Z,32.92
2023-05-04T04:04:50.534Z,32.92
2023-05-04T04:05:50.603Z,32.93
2023-05-04T04:06:50.668Z,32.95
2023-05-04T04:07:50.776Z,32.93
2023-05-04T04:08:50.726Z,32.95
2023-05-04T04:09:50.769Z,32.91
2023-05-04T04:10:50.800Z,32.96
2023-05-04T04:11:50.901Z,32.94
2023-05-04T04:12:51.009Z,32.97
2023-05-04T04:13:50.967Z,33.02
2023-05-04T04:14:51.023Z,32.97
2023-05-04T04:15:51.130Z,32.96
2023-05-04T04:16:51.097Z,32.94
2023-05-04T04:17:51.175Z,32.98
2023-05-04T04:18:51.156Z,33.00
2023-05-04T04:19:51.156Z,32.97
2023-05-04T04:20:51.228Z,32.93
2023-05-04T04:21:51.177Z,32.91
2023-05-04T04:22:51.285Z,32.95
2023-05-04T04:23:51.267Z,32.93
2023-05-04T04:24:51.340Z,32.97
2023-05-04T04:25:51.359Z,32.99
2023-05-04T04:26:51.425Z,32.90
2023-05-04T04:27:51.426Z,32.97
2023-05-04T04:28:51.485Z,32.97
2023-05-04T04:29:51.485Z,32.94
2023-05-04T04:30:51.520Z,32.96
2023-05-04T04:31:51.722Z,32.97
2023-05-04T04:32:51.621Z,32.95
2023-05-04T04:33:51.643Z,32.94
2023-05-04T04:34:51.662Z,33.01
2023-05-04T04:35:51.737Z,32.98
2023-05-04T04:36:51.656Z,33.04
2023-05-04T04:37:51.747Z,33.01
2023-05-04T04:38:51.742Z,32.97
2023-05-04T04:39:51.730Z,33.04
2023-05-04T04:40:51.764Z,33.03
2023-05-04T04:41:51.807Z,33.01
2023-05-04T04:42:51.943Z,33.01
2023-05-04T04:43:51.822Z,32.98
2023-05-04T04:44:51.852Z,33.03
2023-05-04T04:45:51.838Z,33.05
2023-05-04T04:46:51.921Z,32.97
2023-05-04T04:47:51.906Z,32.95
2023-05-04T04:48:51.876Z,32.98
2023-05-04T04:49:51.945Z,33.02
2023-05-04T04:50:51.941Z,32.95
2023-05-04T04:51:51.951Z,32.96
2023-05-04T04:52:51.972Z,32.95
2023-05-04T04:53:51.905Z,32.95
2023-05-04T04:54:51.982Z,32.93
2023-05-04T04:55:51.914Z,32.96
2023-05-04T04:56:51.911Z,32.99
2023-05-04T04:57:52.427Z,32.99
2023-05-04T04:58:51.994Z,33.00
2023-05-04T04:59:51.976Z,32.99
2023-05-04T05:00:52.063Z,33.04
2023-05-04T05:01:52.001Z,33.01
2023-05-04T05:02:52.476Z,33.04
2023-05-04T05:03:52.042Z,33.04
2023-05-04T05:04:52.066Z,33.04
2023-05-04T05:05:52.023Z,33.06
2023-05-04T05:06:51.992Z,33.11
2023-05-04T05:07:52.005Z,33.08
2023-05-04T05:08:51.996Z,33.09
2023-05-04T05:09:52.008Z,33.08
2023-05-04T05:10:51.985Z,33.08
2023-05-04T05:11:51.996Z,33.13
2023-05-04T05:12:52.494Z,33.03
2023-05-04T05:13:52.037Z,33.08
2023-05-04T05:14:52.048Z,33.11
2023-05-04T05:15:52.020Z,33.04
2023-05-04T05:16:52.160Z,33.07
2023-05-04T05:17:52.123Z,33.11
2023-05-04T05:18:52.050Z,33.10
2023-05-04T05:19:52.216Z,33.06
2023-05-04T05:20:52.076Z,33.05
2023-05-04T05:21:52.082Z,33.06
2023-05-04T05:22:52.466Z,33.06
2023-05-04T05:23:52.099Z,33.07
2023-05-04T05:24:52.130Z,33.13
2023-05-04T05:25:52.166Z,33.07
2023-05-04T05:26:52.128Z,33.13
2023-05-04T05:27:52.117Z,33.06
2023-05-04T05:28:52.114Z,33.13
2023-05-04T05:29:52.120Z,33.11
2023-05-04T05:30:52.351Z,33.10
2023-05-04T05:31:52.103Z,33.07
2023-05-04T05:32:52.460Z,33.04
2023-05-04T05:33:52.150Z,33.01
2023-05-04T05:34:52.139Z,32.99
2023-05-04T05:35:52.158Z,32.97
2023-05-04T05:36:52.169Z,33.00
2023-05-04T05:37:52.175Z,32.93
2023-05-04T05:38:52.213Z,32.97
2023-05-04T05:39:52.268Z,32.97
2023-05-04T05:40:52.305Z,33.02
2023-05-04T05:41:52.331Z,32.93
2023-05-04T05:42:52.334Z,32.88
2023-05-04T05:43:52.430Z,32.92
2023-05-04T05:44:52.425Z,32.90
2023-05-04T05:45:52.527Z,32.91
2023-05-04T05:46:52.559Z,32.85
2023-05-04T05:47:52.945Z,32.80
2023-05-04T05:48:52.657Z,32.80
2023-05-04T05:49:52.738Z,32.82
2023-05-04T05:50:52.795Z,32.81
2023-05-04T05:51:52.874Z,32.77
2023-05-04T05:52:52.917Z,32.78
2023-05-04T05:53:52.996Z,32.74
2023-05-04T05:54:53.057Z,32.80
2023-05-04T05:55:53.106Z,32.77
2023-05-04T05:56:53.201Z,32.73
2023-05-04T05:57:53.437Z,32.76
2023-05-04T05:58:53.334Z,32.86
2023-05-04T05:59:53.344Z,32.84
2023-05-04T06:00:53.416Z,32.86
2023-05-04T06:01:53.484Z,32.89
2023-05-04T06:02:53.963Z,32.89
2023-05-04T06:03:53.766Z,32.87
2023-05-04T06:04:53.761Z,32.87
2023-05-04T06:05:53.703Z,32.86
2023-05-04T06:06:53.735Z,32.91
2023-05-04T06:07:53.826Z,32.93
2023-05-04T06:08:53.884Z,32.95
2023-05-04T06:09:53.960Z,32.95
2023-05-04T06:10:53.990Z,32.92
2023-05-04T06:11:55.661Z,32.92
2023-05-04T06:12:54.144Z,32.89
2023-05-04T06:13:54.154Z,32.84
2023-05-04T06:14:54.251Z,32.84
2023-05-04T06:15:54.361Z,32.84
2023-05-04T06:16:54.339Z,32.83
2023-05-04T06:17:54.460Z,32.81
2023-05-04T06:18:54.468Z,32.86
2023-05-04T06:19:54.498Z,32.89
2023-05-04T06:20:54.580Z,32.86
2023-05-04T06:21:54.717Z,32.86
2023-05-04T06:22:54.703Z,32.90
2023-05-04T06:23:54.746Z,32.81
2023-05-04T06:24:59.007Z,32.81
2023-05-04T06:25:55.787Z,32.84
2023-05-04T06:26:54.817Z,32.79
2023-05-04T06:27:54.956Z,32.80
2023-05-04T06:28:54.770Z,32.76
2023-05-04T06:29:54.786Z,32.79
2023-05-04T06:30:54.787Z,32.70
2023-05-04T06:31:54.798Z,32.73
2023-05-04T06:32:55.006Z,32.74
2023-05-04T06:33:54.756Z,32.79
2023-05-04T06:34:54.736Z,32.78
2023-05-04T06:35:54.826Z,32.86
2023-05-04T06:36:54.894Z,32.90
2023-05-04T06:37:54.946Z,32.91
2023-05-04T06:38:54.955Z,33.07
2023-05-04T06:39:55.049Z,33.08
2023-05-04T06:40:56.218Z,33.09
2023-05-04T06:41:55.161Z,33.12
2023-05-04T06:42:55.457Z,33.23
2023-05-04T06:43:57.469Z,33.43
2023-05-04T06:44:55.275Z,33.69
2023-05-04T06:45:55.292Z,33.84
2023-05-04T06:46:55.247Z,34.01
2023-05-04T06:47:55.444Z,34.19
2023-05-04T06:48:55.278Z,34.26
2023-05-04T06:49:55.237Z,34.26
2023-05-04T06:50:55.218Z,34.25
2023-05-04T06:51:55.212Z,33.99
2023-05-04T06:52:55.274Z,33.93
2023-05-04T06:53:55.229Z,33.83
2023-05-04T06:54:55.219Z,33.65
2023-05-04T06:55:55.293Z,33.50
2023-05-04T06:56:55.179Z,33.34
2023-05-04T06:57:55.483Z,32.92
2023-05-04T06:58:55.175Z,32.64
2023-05-04T06:59:55.201Z,32.63
2023-05-04T07:00:55.225Z,32.47
2023-05-04T07:01:55.144Z,32.40
2023-05-04T07:02:55.245Z,32.37
2023-05-04T07:03:55.144Z,32.14
2023-05-04T07:04:55.143Z,31.98
2023-05-04T07:05:55.116Z,31.99
2023-05-04T07:06:55.185Z,31.74
2023-05-04T07:07:55.457Z,31.55
2023-05-04T07:08:55.161Z,31.44
2023-05-04T07:09:55.104Z,31.28
2023-05-04T07:10:55.088Z,31.58
2023-05-04T07:11:55.125Z,31.29
2023-05-04T07:12:55.504Z,31.29
2023-05-04T07:13:55.087Z,31.81
2023-05-04T07:14:55.121Z,31.45
2023-05-04T07:15:55.215Z,31.47
2023-05-04T07:16:55.058Z,31.53
2023-05-04T07:17:55.563Z,31.49
2023-05-04T07:18:55.029Z,31.49
2023-05-04T07:19:55.102Z,31.40
2023-05-04T07:21:01.737Z,31.34
2023-05-04T07:21:56.058Z,31.43
2023-05-04T07:22:55.048Z,31.31
2023-05-04T07:23:55.003Z,31.38
2023-05-04T07:24:54.999Z,31.45
2023-05-04T07:25:55.020Z,31.48
2023-05-04T07:26:54.970Z,31.53
2023-05-04T07:27:55.029Z,31.49
2023-05-04T07:28:55.033Z,31.50
2023-05-04T07:29:54.973Z,31.67
2023-05-04T07:30:54.981Z,31.72
2023-05-04T07:31:55.027Z,31.81
2023-05-04T07:32:55.039Z,31.74
2023-05-04T07:33:54.966Z,31.97
2023-05-04T07:34:54.999Z,31.99
2023-05-04T07:35:54.974Z,31.93
2023-05-04T07:36:54.929Z,31.96
2023-05-04T07:37:54.990Z,31.83
2023-05-04T07:38:54.994Z,31.77
2023-05-04T07:39:54.897Z,31.70
2023-05-04T07:40:54.903Z,31.75
2023-05-04T07:41:54.897Z,31.94
2023-05-04T07:42:55.015Z,32.06
2023-05-04T07:43:54.877Z,31.94
2023-05-04T07:44:54.895Z,31.84
2023-05-04T07:45:54.888Z,31.78
2023-05-04T07:46:54.847Z,31.76
2023-05-04T07:47:54.897Z,31.77
2023-05-04T07:48:54.854Z,31.77
2023-05-04T07:49:54.816Z,31.80
2023-05-04T07:50:54.812Z,31.81
2023-05-04T07:51:54.805Z,31.84
2023-05-04T07:52:54.998Z,31.83
2023-05-04T07:53:54.829Z,31.83
2023-05-04T07:54:54.802Z,31.82
2023-05-04T07:55:54.857Z,31.87
2023-05-04T07:56:54.771Z,31.89
2023-05-04T07:57:54.982Z,31.91
2023-05-04T07:58:54.846Z,31.97
2023-05-04T07:59:54.917Z,31.95
2023-05-04T08:00:54.794Z,31.97
2023-05-04T08:01:54.895Z,31.97
2023-05-04T08:02:54.801Z,31.97
2023-05-04T08:03:54.852Z,31.97
2023-05-04T08:04:54.905Z,31.94
2023-05-04T08:05:54.874Z,31.98
2023-05-04T08:06:54.827Z,32.01
2023-05-04T08:07:54.886Z,31.99
2023-05-04T08:08:54.851Z,31.98
2023-05-04T08:09:54.893Z,32.04
2023-05-04T08:10:56.248Z,32.07
2023-05-04T08:11:55.870Z,32.07
2023-05-04T08:12:54.868Z,32.03
2023-05-04T08:13:54.850Z,32.08
2023-05-04T08:14:54.879Z,32.07
2023-05-04T08:15:54.832Z,32.04
2023-05-04T08:16:54.801Z,32.04
2023-05-04T08:17:54.902Z,32.07
2023-05-04T08:18:55.003Z,32.14
2023-05-04T08:19:54.815Z,32.10
2023-05-04T08:20:55.816Z,32.02
2023-05-04T08:21:54.810Z,32.02
2023-05-04T08:22:54.788Z,32.03
2023-05-04T08:23:54.786Z,32.00
2023-05-04T08:24:54.806Z,32.02
2023-05-04T08:25:54.770Z,31.99
2023-05-04T08:27:06.545Z,32.03
2023-05-04T08:27:55.773Z,32.03
2023-05-04T08:28:54.762Z,32.04
2023-05-04T08:29:54.729Z,32.09
2023-05-04T08:30:54.721Z,32.05
2023-05-04T08:31:54.814Z,32.06
2023-05-04T08:32:54.697Z,32.09
2023-05-04T08:33:54.730Z,32.04
2023-05-04T08:34:54.760Z,32.09
2023-05-04T08:35:54.705Z,32.06
2023-05-04T08:36:54.708Z,32.12
2023-05-04T08:37:54.702Z,32.13
2023-05-04T08:38:54.687Z,32.12
2023-05-04T08:39:54.710Z,32.18
2023-05-04T08:40:54.740Z,32.17
2023-05-04T08:41:54.713Z,32.17
2023-05-04T08:42:54.641Z,32.19
2023-05-04T08:43:54.661Z,32.19
2023-05-04T08:44:54.647Z,32.19
2023-05-04T08:45:54.641Z,32.22
2023-05-04T08:46:54.616Z,32.25
2023-05-04T08:47:54.701Z,32.24
2023-05-04T08:48:55.014Z,32.22
2023-05-04T08:49:54.657Z,32.27
2023-05-04T08:50:54.600Z,32.28
2023-05-04T08:51:54.601Z,32.25
2023-05-04T08:52:54.590Z,32.28
2023-05-04T08:53:54.604Z,32.30
2023-05-04T08:54:54.594Z,32.28
2023-05-04T08:55:54.557Z,32.30
2023-05-04T08:56:54.544Z,32.26
2023-05-04T08:57:54.533Z,32.31
2023-05-04T08:58:54.523Z,32.28
2023-05-04T08:59:54.550Z,32.30
2023-05-04T09:00:54.656Z,32.32
2023-05-04T09:01:54.607Z,32.34
2023-05-04T09:02:54.578Z,32.34
2023-05-04T09:03:54.584Z,32.32
2023-05-04T09:04:54.495Z,32.33
2023-05-04T09:05:54.465Z,32.34
2023-05-04T09:06:54.554Z,32.35
2023-05-04T09:07:54.502Z,32.38
2023-05-04T09:08:54.488Z,32.32
2023-05-04T09:09:54.487Z,32.32
2023-05-04T09:10:54.490Z,32.32
2023-05-04T09:11:54.432Z,32.34
2023-05-04T09:12:54.436Z,32.37
2023-05-04T09:13:54.437Z,32.36
2023-05-04T09:14:54.434Z,32.41
2023-05-04T09:15:54.432Z,32.39
2023-05-04T09:16:54.479Z,32.42
2023-05-04T09:17:57.813Z,32.42
2023-05-04T09:18:54.449Z,32.38
2023-05-04T09:19:54.445Z,32.41
2023-05-04T09:20:54.453Z,32.35
2023-05-04T09:21:54.428Z,32.36
2023-05-04T09:22:54.453Z,32.36
2023-05-04T09:23:54.456Z,32.41
2023-05-04T09:24:54.412Z,32.39
2023-05-04T09:25:54.458Z,32.42
2023-05-04T09:26:54.396Z,32.38
2023-05-04T09:27:54.462Z,32.41
2023-05-04T09:28:54.380Z,32.43
2023-05-04T09:29:54.372Z,32.46
2023-05-04T09:30:54.403Z,32.40
2023-05-04T09:31:54.363Z,32.43
2023-05-04T09:32:54.376Z,32.45
2023-05-04T09:33:54.346Z,32.38
2023-05-04T09:34:54.359Z,32.41
2023-05-04T09:35:54.327Z,32.41
2023-05-04T09:36:54.354Z,32.40
2023-05-04T09:37:54.321Z,32.44
2023-05-04T09:38:54.299Z,32.42
2023-05-04T09:39:54.324Z,32.48
2023-05-04T09:40:54.340Z,32.48
2023-05-04T09:41:54.286Z,32.49
2023-05-04T09:42:54.285Z,32.49
2023-05-04T09:43:54.302Z,32.46
2023-05-04T09:44:54.286Z,32.47
2023-05-04T09:45:54.351Z,32.49
2023-05-04T09:46:54.271Z,32.45
2023-05-04T09:47:54.313Z,32.49
2023-05-04T09:48:54.268Z,32.57
2023-05-04T09:49:54.235Z,32.74
2023-05-04T09:50:54.264Z,32.54
2023-05-04T09:51:54.267Z,32.61
2023-05-04T09:52:54.202Z,33.99
2023-05-04T09:53:54.203Z,33.55
2023-05-04T09:54:54.256Z,33.40
2023-05-04T09:55:54.180Z,33.02
2023-05-04T09:56:54.192Z,33.07
2023-05-04T09:57:54.187Z,33.05
2023-05-04T09:58:54.193Z,33.13
2023-05-04T09:59:54.230Z,33.30
2023-05-04T10:00:54.133Z,33.35
2023-05-04T10:01:54.243Z,33.23
2023-05-04T10:02:54.180Z,33.29
2023-05-04T10:03:54.155Z,33.16
2023-05-04T10:04:54.148Z,32.94
2023-05-04T10:05:54.287Z,32.96
2023-05-04T10:06:54.156Z,33.10
2023-05-04T10:07:54.138Z,33.11
2023-05-04T10:08:54.122Z,33.08
2023-05-04T10:09:54.112Z,33.32
2023-05-04T10:10:54.124Z,33.59
2023-05-04T10:11:54.135Z,33.07
2023-05-04T10:12:54.196Z,32.99
2023-05-04T10:13:54.218Z,33.01
2023-05-04T10:14:54.288Z,33.13
2023-05-04T10:15:54.415Z,33.40
2023-05-04T10:16:54.399Z,33.09
2023-05-04T10:17:54.461Z,33.40
2023-05-04T10:18:54.537Z,33.18
2023-05-04T10:19:54.580Z,33.60
2023-05-04T10:20:54.635Z,33.69
2023-05-04T10:21:54.653Z,33.42
2023-05-04T10:22:54.754Z,33.44
2023-05-04T10:23:54.857Z,33.40
2023-05-04T10:24:54.858Z,33.17
2023-05-04T10:25:54.891Z,33.58
2023-05-04T10:26:55.140Z,33.29
2023-05-04T10:27:55.047Z,33.16
2023-05-04T10:28:55.081Z,33.45
2023-05-04T10:29:55.103Z,33.31
2023-05-04T10:30:55.186Z,33.24
2023-05-04T10:31:55.242Z,33.35
2023-05-04T10:32:55.352Z,33.63
2023-05-04T10:33:55.326Z,33.29
2023-05-04T10:34:57.329Z,33.27
2023-05-04T10:35:55.413Z,33.19
2023-05-04T10:36:55.455Z,33.16
2023-05-04T10:37:55.490Z,33.43
2023-05-04T10:38:55.528Z,33.34
2023-05-04T10:39:55.622Z,33.25
2023-05-04T10:40:55.654Z,33.27
2023-05-04T10:41:55.701Z,33.77
2023-05-04T10:42:55.694Z,34.23
2023-05-04T10:43:55.741Z,34.29
2023-05-04T10:44:55.797Z,34.14
2023-05-04T10:45:55.848Z,33.99
2023-05-04T10:46:57.363Z,33.93
2023-05-04T10:47:55.894Z,34.33
2023-05-04T10:48:56.042Z,34.35
2023-05-04T10:49:55.798Z,34.25
2023-05-04T10:50:55.805Z,34.25
2023-05-04T10:51:55.786Z,34.25
2023-05-04T10:52:56.783Z,34.01
2023-05-04T10:53:56.593Z,34.16
2023-05-04T10:54:55.803Z,34.16
2023-05-04T10:55:55.808Z,34.11
2023-05-04T10:56:55.801Z,34.02
2023-05-04T10:57:55.863Z,34.05
2023-05-04T10:58:55.855Z,33.91
2023-05-04T10:59:55.887Z,34.10
2023-05-04T11:00:55.920Z,33.80
2023-05-04T11:01:55.937Z,33.93
2023-05-04T11:02:56.055Z,33.85
2023-05-04T11:03:55.991Z,33.98
2023-05-04T11:04:55.989Z,34.11
2023-05-04T11:05:56.075Z,34.10
2023-05-04T11:06:56.059Z,34.48
2023-05-04T11:07:56.075Z,34.04
2023-05-04T11:08:56.133Z,34.21
2023-05-04T11:09:56.133Z,34.11
2023-05-04T11:10:56.192Z,34.39
2023-05-04T11:11:56.297Z,34.12
2023-05-04T11:12:56.220Z,34.05
2023-05-04T11:13:56.627Z,34.24
2023-05-04T11:14:56.217Z,34.07
2023-05-04T11:15:56.269Z,33.96
2023-05-04T11:16:56.292Z,34.03
2023-05-04T11:17:56.378Z,34.10
2023-05-04T11:18:56.402Z,34.21
2023-05-04T11:19:56.361Z,34.10
2023-05-04T11:20:56.395Z,34.24
2023-05-04T11:21:56.380Z,34.25
2023-05-04T11:22:56.421Z,34.12
2023-05-04T11:23:56.492Z,34.05
2023-05-04T11:24:56.520Z,34.06
2023-05-04T11:25:56.507Z,34.14
2023-05-04T11:26:56.504Z,34.81
2023-05-04T11:27:56.571Z,34.72
2023-05-04T11:28:56.552Z,34.99
2023-05-04T11:29:56.592Z,35.00
2023-05-04T11:30:56.578Z,34.77
2023-05-04T11:31:56.711Z,35.14
2023-05-04T11:32:56.767Z,35.07
2023-05-04T11:33:56.634Z,34.49
2023-05-04T11:34:56.656Z,35.49
2023-05-04T11:35:56.687Z,35.39
2023-05-04T11:36:56.673Z,35.15
2023-05-04T11:37:56.716Z,35.09
2023-05-04T11:38:56.746Z,35.06
2023-05-04T11:39:56.697Z,34.96
2023-05-04T11:40:56.777Z,35.00
2023-05-04T11:41:56.770Z,34.92
2023-05-04T11:42:57.168Z,34.98
2023-05-04T11:43:56.824Z,34.83
2023-05-04T11:44:56.847Z,34.85
2023-05-04T11:45:56.868Z,34.96
2023-05-04T11:46:56.913Z,34.90
2023-05-04T11:47:56.944Z,34.97
2023-05-04T11:48:56.883Z,34.92
2023-05-04T11:49:56.920Z,35.02
2023-05-04T11:50:56.933Z,35.33
2023-05-04T11:51:56.950Z,34.99
2023-05-04T11:52:56.973Z,34.93
2023-05-04T11:53:56.998Z,34.95
2023-05-04T11:54:57.058Z,34.97
2023-05-04T11:55:57.082Z,34.99
2023-05-04T11:56:57.092Z,35.01
2023-05-04T11:57:57.126Z,35.16
2023-05-04T11:58:57.172Z,34.94
2023-05-04T11:59:57.171Z,35.06
2023-05-04T12:00:57.190Z,35.00
2023-05-04T12:01:57.218Z,35.03
2023-05-04T12:02:57.352Z,35.08
2023-05-04T12:03:57.424Z,35.00
2023-05-04T12:04:57.306Z,34.92
2023-05-04T12:05:57.409Z,34.94
2023-05-04T12:06:58.205Z,34.79
2023-05-04T12:07:57.373Z,34.83
2023-05-04T12:08:57.435Z,34.75
2023-05-04T12:09:57.448Z,34.76
2023-05-04T12:10:57.484Z,34.71
2023-05-04T12:11:57.522Z,34.70
2023-05-04T12:12:57.584Z,34.80
2023-05-04T12:13:57.574Z,34.85
2023-05-04T12:14:57.603Z,34.87
2023-05-04T12:15:57.740Z,34.86
2023-05-04T12:16:57.797Z,34.92
2023-05-04T12:17:58.193Z,34.95
2023-05-04T12:18:58.119Z,34.99
2023-05-04T12:19:57.797Z,35.01
2023-05-04T12:20:57.787Z,35.04
2023-05-04T12:21:57.806Z,35.07
2023-05-04T12:22:57.836Z,35.03
2023-05-04T12:23:57.861Z,35.04
2023-05-04T12:24:57.884Z,35.13
2023-05-04T12:25:58.671Z,35.13
2023-05-04T12:26:58.013Z,35.12
2023-05-04T12:27:57.975Z,35.13
2023-05-04T12:28:58.033Z,35.04
2023-05-04T12:29:58.029Z,35.11
2023-05-04T12:30:58.084Z,35.16
2023-05-04T12:31:58.221Z,35.08
2023-05-04T12:32:58.163Z,35.15
2023-05-04T12:33:58.155Z,35.18
2023-05-04T12:34:58.298Z,35.15
2023-05-04T12:35:58.244Z,35.16
2023-05-04T12:36:58.244Z,35.11
2023-05-04T12:37:58.277Z,35.16
2023-05-04T12:38:58.370Z,35.20
2023-05-04T12:39:58.353Z,35.12
2023-05-04T12:40:58.364Z,35.15
2023-05-04T12:41:58.396Z,35.13
2023-05-04T12:42:58.429Z,35.13
2023-05-04T12:43:58.464Z,35.09
2023-05-04T12:44:58.464Z,35.10
2023-05-04T12:45:58.580Z,35.12
2023-05-04T12:46:58.556Z,35.16
2023-05-04T12:47:58.584Z,35.17
2023-05-04T12:48:58.587Z,35.18
2023-05-04T12:49:59.149Z,35.29
2023-05-04T12:50:58.635Z,35.21
2023-05-04T12:51:58.693Z,35.22
2023-05-04T12:52:58.691Z,35.22
2023-05-04T12:53:58.740Z,35.25